Time;durP1;ratioP1;P1;durP2;ratioP2;P2;SDS_P1;SDS_P2;PMS_P1;PMS_P2;Temp;Humidity;BMP_temperature;BMP_pressure;BME280_temperature;BME280_humidity;BME280_pressure;Samples;Min_cycle;Max_cycle;Signal;HPM_P1;HPM_P2
2023/01/02 07:43:55;;;;;;;;;0.00;0.00;;;;;10.27;100.00;100866.97;2625906;23;46108;-91
2023/01/02 07:46:45;;;;;;;;;0.00;0.00;;;;;8.49;100.00;100582.56;4909303;29;45246;-92
2023/01/02 07:49:30;;;;;;;;;0.00;0.00;;;;;9.20;100.00;100713.50;4851131;29;44908;-91
2023/01/02 08:05:48;;;;;;;;;0.00;0.00;;;;;8.76;100.00;100681.50;4855223;29;45338;-92
2023/01/02 08:08:30;;;;;;;;;1.00;0.00;;;;;9.52;100.00;100807.22;4845381;29;45446;-93
2023/01/02 08:11:22;;;;;;;;;0.25;0.25;;;;;8.70;100.00;100677.16;4840907;29;45372;-93
2023/01/02 08:34:24;;;;;;;;;;;;;;;;;;;;;
2023/01/02 08:59:49;;;;;;;;;0.00;0.00;;;;;9.18;100.00;100890.22;4789447;29;45273;-92
2023/01/02 09:06:09;;;;;;;;;0.00;0.00;;;;;9.96;100.00;101030.25;4801197;29;45249;-92
2023/01/02 09:09:12;;;;;;;;;0.50;0.50;;;;;9.62;100.00;100993.59;4799820;29;46085;-93
2023/01/02 09:12:37;;;;;;;;;0.50;0.00;;;;;8.70;100.00;100829.16;4797049;29;45281;-94
2023/01/02 09:22:16;;;;;;;;;0.00;0.00;;;;;10.28;100.00;101047.50;4818897;29;45723;-93
2023/01/02 09:25:04;;;;;;;;;0.00;0.00;;;;;8.71;100.00;100786.97;4811030;29;45497;-93
2023/01/02 09:27:50;;;;;;;;;0.75;0.75;;;;;9.72;100.00;100970.63;4795042;29;45487;-93
2023/01/02 09:30:33;;;;;;;;;0.00;0.00;;;;;10.30;100.00;101082.69;4793963;29;45638;-92
2023/01/02 09:33:38;;;;;;;;;1.50;1.50;;;;;10.30;100.00;101088.00;4819315;29;45268;-94
2023/01/02 09:40:09;;;;;;;;;0.00;0.00;;;;;10.27;100.00;101096.81;4771750;29;45322;-94
2023/01/02 09:42:51;;;;;;;;;0.00;0.00;;;;;10.26;100.00;101105.66;4758378;29;45278;-91
2023/01/02 09:45:27;;;;;;;;;;;;;;;;;;;;;
2023/01/02 09:47:58;;;;;;;;;0.25;0.25;;;;;9.12;100.00;100924.56;4786971;29;72370;-92
2023/01/02 09:53:34;;;;;;;;;0.00;0.00;;;;;10.31;100.00;101150.53;4773596;29;45375;-94
2023/01/02 09:56:23;;;;;;;;;0.00;0.00;;;;;9.17;100.00;100957.06;4772369;29;46634;-91
2023/01/02 09:59:27;;;;;;;;;0.00;0.00;;;;;9.62;100.00;101051.66;4776928;29;45410;-95
2023/01/02 10:02:18;;;;;;;;;0.00;0.00;;;;;9.83;100.00;101076.13;4784695;29;44778;-95
2023/01/02 10:05:18;;;;;;;;;0.50;0.50;;;;;10.33;100.00;101164.63;4751945;29;44837;-93
2023/01/02 10:08:16;;;;;;;;;1.00;0.00;;;;;8.80;100.00;100904.59;4751931;30;45604;-93
2023/01/02 10:11:10;;;;;;;;;0.00;0.00;;;;;9.36;100.00;101009.66;4748142;29;45280;-94
2023/01/02 10:13:59;;;;;;;;;1.25;1.25;;;;;9.94;100.00;101096.28;4757704;29;45421;-94
2023/01/02 10:16:39;;;;;;;;;0.00;0.00;;;;;9.33;100.00;100983.31;4829844;29;45268;-93
2023/01/02 10:19:42;;;;;;;;;;;;;;;;;;;;;
2023/01/02 10:22:14;;;;;;;;;2.00;0.00;;;;;8.62;100.00;100868.72;4945971;28;71923;-93
2023/01/02 10:25:04;;;;;;;;;0.25;0.25;;;;;8.71;100.00;100855.50;4944805;28;44686;-94
2023/01/02 10:28:05;;;;;;;;;0.50;0.50;;;;;9.52;100.00;101013.03;4933687;28;45409;-94
2023/01/02 10:30:39;;;;;;;;;1.50;1.00;;;;;9.89;100.00;101058.47;4935528;28;45282;-93
2023/01/02 10:33:17;;;;;;;;;1.75;0.75;;;;;10.31;100.00;101142.59;4934063;28;45381;-94
2023/01/02 10:35:47;;;;;;;;;0.00;0.00;;;;;10.32;100.00;101150.50;4920860;28;45189;-93
2023/01/02 10:38:20;;;;;;;;;1.00;0.00;;;;;9.95;100.00;101090.09;4931420;28;45258;-93
2023/01/02 10:40:51;;;;;;;;;1.00;1.00;;;;;9.66;100.00;101056.03;4930097;28;46104;-93
2023/01/02 10:43:18;;;;;;;;;1.00;1.00;;;;;10.44;100.00;101154.81;4921220;28;45269;-94
2023/01/02 10:45:43;;;;;;;;;1.00;1.00;;;;;8.80;100.00;100867.69;4930438;28;45445;-93
2023/01/02 10:48:10;;;;;;;;;0.00;0.00;;;;;9.64;100.00;101034.06;4925763;28;45573;-93
2023/01/02 10:50:47;;;;;;;;;2.50;0.00;;;;;8.69;100.00;100867.78;4913354;28;47114;-92
2023/01/02 10:53:57;;;;;;;;;0.50;0.50;;;;;10.60;100.00;101200.47;4916137;28;45452;-89
2023/01/02 10:56:23;;;;;;;;;0.00;0.00;;;;;9.30;100.00;100978.06;4837025;29;45537;-89
2023/01/02 10:58:51;;;;;;;;;0.00;0.00;;;;;10.03;100.00;101099.72;4851380;29;45604;-89
2023/01/02 11:01:20;;;;;;;;;0.25;0.25;;;;;10.06;100.00;101105.81;4831196;29;47120;-88
2023/01/02 11:04:13;;;;;;;;;0.75;0.75;;;;;9.86;100.00;101057.63;4854228;29;45366;-92
2023/01/02 11:07:19;;;;;;;;;1.00;0.00;;;;;9.97;100.00;101063.66;4850616;29;45409;-92
2023/01/02 11:09:57;;;;;;;;;0.00;0.00;;;;;10.41;100.00;101136.34;4844717;29;45437;-91
2023/01/02 11:12:46;;;;;;;;;0.00;0.00;;;;;10.82;100.00;101201.09;4839277;29;46508;-91
2023/01/02 11:15:24;;;;;;;;;0.00;0.00;;;;;10.47;100.00;101156.53;4849708;29;45539;-91
2023/01/02 11:17:52;;;;;;;;;1.00;1.00;;;;;10.54;100.00;101165.31;4845498;29;45340;-94
2023/01/02 11:20:52;;;;;;;;;1.00;1.00;;;;;10.48;100.00;101131.88;4836612;29;45435;-94
2023/01/02 11:23:29;;;;;;;;;1.50;0.50;;;;;10.89;100.00;101220.44;4853125;29;45421;-93
2023/01/02 11:26:01;;;;;;;;;2.00;2.00;;;;;11.09;100.00;101222.84;4850250;29;45304;-94
2023/01/02 11:35:46;;;;;;;;;1.00;1.00;;;;;11.36;100.00;101202.25;4847951;29;45385;-93
2023/01/02 11:38:19;;;;;;;;;1.50;1.50;;;;;9.67;100.00;100923.19;4859891;29;45459;-93
2023/01/02 11:43:47;;;;;;;;;2.00;1.00;;;;;10.90;100.00;101132.28;4871145;29;45702;-93
2023/01/02 11:44:27;;;;;;;;;1.00;1.00;;;;;9.73;100.00;100925.75;4851702;29;45377;-93
2023/01/02 11:47:27;;;;;;;;;1.00;1.00;;;;;11.55;100.00;101211.69;4866322;29;46779;-95
2023/01/02 11:59:49;;;;;;;;;2.50;2.25;;;;;10.72;100.00;100937.72;4798136;29;45451;-93
2023/01/02 12:19:44;;;;;;;;;1.00;1.00;;;;;12.94;100.00;101259.78;4777280;29;45302;-89
2023/01/02 12:22:30;;;;;;;;;1.00;1.00;;;;;12.17;100.00;101112.72;4761045;29;45669;-91
2023/01/02 12:25:26;;;;;;;;;3.00;2.00;;;;;13.10;100.00;101254.19;4759682;29;47894;-92
2023/01/02 12:28:32;;;;;;;;;0.00;0.00;;;;;12.78;100.00;101184.94;4775482;29;45421;-92
2023/01/02 12:31:32;;;;;;;;;2.00;1.00;;;;;13.77;100.00;101254.59;4781223;29;44826;-92
2023/01/02 12:34:42;;;;;;;;;1.00;1.00;;;;;14.70;99.96;101255.88;4796777;29;45634;-94
2023/01/02 12:37:26;;;;;;;;;1.00;1.00;;;;;15.09;96.79;101154.56;4748514;29;45278;-93
2023/01/02 12:47:25;;;;;;;;;0.00;0.00;;;;;18.66;87.63;101269.97;4748306;30;44996;-93
2023/01/02 12:50:03;;;;;;;;;2.00;2.00;;;;;18.93;87.80;101269.72;4746522;30;47013;-91
2023/01/02 12:52:39;;;;;;;;;0.75;0.75;;;;;18.33;86.98;101159.88;4752455;29;45270;-93
2023/01/02 12:55:46;;;;;;;;;0.00;0.00;;;;;18.63;82.03;101284.34;4770351;29;44863;-94
2023/01/02 12:58:42;;;;;;;;;0.00;0.00;;;;;18.06;85.49;101280.47;4816093;29;44937;-93
2023/01/02 13:01:26;;;;;;;;;1.50;1.00;;;;;16.09;91.59;101105.22;4859298;29;45395;-93
2023/01/02 13:04:23;;;;;;;;;1.00;1.00;;;;;16.94;94.16;101283.72;4857869;29;44760;-94
2023/01/02 13:06:55;;;;;;;;;0.00;0.00;;;;;16.59;95.28;101274.25;4856846;29;45415;-94
2023/01/02 13:09:34;;;;;;;;;0.00;0.00;;;;;16.81;93.84;101299.28;4855516;29;45357;-93
2023/01/02 13:12:16;;;;;;;;;0.50;0.50;;;;;16.96;93.04;101297.00;4839592;29;46996;-96
2023/01/02 13:14:52;;;;;;;;;2.00;1.00;;;;;16.93;92.87;101321.16;4853949;29;45362;-92
2023/01/02 13:17:59;;;;;;;;;0.00;0.00;;;;;16.63;93.01;101300.78;4851251;29;45555;-91
2023/01/02 13:21:01;;;;;;;;;1.25;1.25;;;;;15.50;95.58;101199.50;4879879;28;45641;-90
2023/01/02 13:23:52;;;;;;;;;1.00;1.00;;;;;14.58;97.37;101104.56;4929184;28;45417;-90
2023/01/02 13:27:01;;;;;;;;;;;;;;;;;;;;;
2023/01/02 13:29:47;;;;;;;;;2.00;1.00;;;;;14.26;96.11;101190.53;4928278;28;69666;-91
2023/01/02 13:32:24;;;;;;;;;1.00;1.00;;;;;14.73;99.92;101343.63;4898349;28;45605;-91
2023/01/02 13:35:01;;;;;;;;;1.25;0.25;;;;;14.51;100.00;101339.69;4928835;28;47000;-92
2023/01/02 13:37:31;;;;;;;;;1.75;1.00;;;;;12.20;100.00;101003.13;4879720;28;45290;-91
2023/01/02 13:40:06;;;;;;;;;0.00;0.00;;;;;12.18;100.00;101012.91;4898445;29;45470;-91
2023/01/02 13:45:24;;;;;;;;;0.00;0.00;;;;;13.82;100.00;101347.47;4918417;28;45444;-93
2023/01/02 14:02:12;;;;;;;;;2.00;2.00;;;;;11.90;100.00;101151.13;5100096;23;45903;-95
2023/01/02 14:05:43;;;;;;;;;3.00;3.00;;;;;10.63;100.00;101004.81;4993426;28;44778;-94
2023/01/02 14:22:22;;;;;;;;;1.00;1.00;;;;;12.26;100.00;101388.19;4860175;29;45359;-92
2023/01/02 14:25:23;;;;;;;;;0.00;0.00;;;;;10.22;100.00;101061.66;4853289;29;46819;-95
2023/01/02 14:28:42;;;;;;;;;1.00;0.00;;;;;10.96;100.00;101187.75;4859788;29;45497;-93
2023/01/02 14:38:45;;;;;;;;;2.00;0.25;;;;;11.80;100.00;101401.16;4820143;29;45293;-94
2023/01/02 14:44:58;;;;;;;;;0.00;0.00;;;;;11.20;100.00;101361.19;4818807;29;45408;-94
2023/01/02 14:48:02;;;;;;;;;1.00;0.75;;;;;9.58;100.00;101089.50;4796118;29;45349;-95
2023/01/02 14:50:36;;;;;;;;;0.50;0.50;;;;;10.64;100.00;101313.22;4816653;29;47076;-94
2023/01/02 14:53:40;;;;;;;;;0.00;0.00;;;;;10.88;100.00;101358.84;4819995;29;45478;-94
2023/01/02 15:03:30;;;;;;;;;;;;;;;;;;;;;
2023/01/02 15:06:16;;;;;;;;;0.00;0.00;;;;;10.72;100.00;101410.09;4838377;29;71992;-94
2023/01/02 15:08:53;;;;;;;;;1.00;0.00;;;;;10.13;100.00;101321.50;4841586;29;45578;-93
2023/01/02 15:14:36;;;;;;;;;1.50;1.50;;;;;9.66;100.00;101251.34;4866676;29;45119;-93
2023/01/02 15:17:10;;;;;;;;;1.00;1.00;;;;;10.46;100.00;101416.44;4855820;29;45140;-92
2023/01/02 15:19:41;;;;;;;;;1.00;1.00;;;;;9.64;100.00;101284.81;4860593;29;45534;-94
2023/01/02 15:22:18;;;;;;;;;0.50;0.50;;;;;9.58;100.00;101269.88;4852407;29;45323;-93
2023/01/02 15:24:52;;;;;;;;;1.00;1.00;;;;;10.06;100.00;101383.16;4853785;29;45628;-92
2023/01/02 15:27:21;;;;;;;;;1.00;1.00;;;;;10.25;100.00;101410.38;4849375;29;45318;-92
2023/01/02 15:29:52;;;;;;;;;1.00;1.00;;;;;9.89;100.00;101374.44;4871473;29;45370;-91
2023/01/02 15:32:25;;;;;;;;;1.00;1.00;;;;;8.96;100.00;101219.13;4858378;29;45252;-93
2023/01/02 15:35:09;;;;;;;;;1.00;1.00;;;;;10.09;100.00;101420.13;4855007;29;47077;-92
2023/01/02 15:37:43;;;;;;;;;2.25;1.00;;;;;9.59;100.00;101337.59;4853271;29;45206;-92
2023/01/02 15:40:18;;;;;;;;;2.00;2.00;;;;;10.00;100.00;101416.66;4857500;29;44754;-91
2023/01/02 15:45:35;;;;;;;;;0.00;0.00;;;;;9.97;100.00;101436.03;4957565;28;45162;-93
2023/01/02 15:48:06;;;;;;;;;1.50;1.50;;;;;10.34;100.00;101523.09;4950014;28;45354;-92
2023/01/02 15:50:31;;;;;;;;;1.25;1.00;;;;;9.28;100.00;101352.66;4949665;28;45187;-92
2023/01/02 15:53:02;;;;;;;;;0.00;0.00;;;;;9.89;100.00;101443.09;4943868;28;45387;-91
2023/01/02 15:55:47;;;;;;;;;0.00;0.00;;;;;9.04;100.00;101329.84;4930256;28;48229;-92
2023/01/02 15:58:53;;;;;;;;;1.00;1.00;;;;;8.62;100.00;101256.06;4910856;28;45470;-93
2023/01/02 16:01:29;;;;;;;;;1.75;0.25;;;;;10.16;100.00;101553.06;4869597;29;45352;-93
2023/01/02 16:04:04;;;;;;;;;1.00;1.00;;;;;8.71;100.00;101308.81;4869097;29;45324;-92
2023/01/02 16:06:43;;;;;;;;;0.00;0.00;;;;;9.27;100.00;101400.16;4887874;29;47097;-92
2023/01/02 16:09:54;;;;;;;;;0.25;0.25;;;;;8.20;100.00;101234.13;4860773;29;45502;-92
2023/01/02 16:12:26;;;;;;;;;1.00;1.00;;;;;9.81;100.00;101524.09;4863443;29;45620;-92
2023/01/02 16:14:59;;;;;;;;;1.00;1.00;;;;;8.94;100.00;101376.44;4885795;29;45437;-92
2023/01/02 16:17:26;;;;;;;;;2.00;1.00;;;;;9.90;100.00;101529.34;4850767;29;47354;-92
2023/01/02 16:19:58;;;;;;;;;0.50;0.50;;;;;8.99;100.00;101393.13;4853645;29;45441;-92
2023/01/02 16:22:34;;;;;;;;;1.00;1.00;;;;;8.41;100.00;101322.81;4854040;29;45410;-92
2023/01/02 16:25:07;;;;;;;;;1.00;1.00;;;;;9.80;100.00;101548.75;4882231;29;45346;-92
2023/01/02 16:27:46;;;;;;;;;2.75;1.00;;;;;7.47;100.00;101178.75;4857933;29;46424;-93
2023/01/02 16:30:36;;;;;;;;;2.00;1.00;;;;;9.71;100.00;101560.19;4873038;28;45357;-92
2023/01/02 16:33:36;;;;;;;;;1.00;1.00;;;;;9.68;100.00;101565.47;4913068;28;45269;-91
2023/01/02 16:36:16;;;;;;;;;1.00;1.00;;;;;9.63;100.00;101594.50;4901235;29;45564;-92
2023/01/02 16:40:00;;;;;;;;;2.00;2.00;;;;;8.48;100.00;101379.94;4909800;28;46853;-92
2023/01/02 16:43:06;;;;;;;;;1.00;1.00;;;;;9.57;100.00;101576.03;4871145;29;45534;-92
2023/01/02 16:46:19;;;;;;;;;1.00;1.00;;;;;9.17;100.00;101507.41;4889663;29;45485;-92
2023/01/02 16:59:26;;;;;;;;;3.25;1.50;;;;;9.39;100.00;101601.53;4879781;29;45217;-92
2023/01/02 17:01:54;;;;;;;;;1.25;1.25;;;;;8.59;100.00;101487.97;4829593;29;45414;-91
2023/01/02 17:04:33;;;;;;;;;2.00;2.00;;;;;9.34;100.00;101603.28;4817200;29;47217;-92
2023/01/02 17:07:09;;;;;;;;;2.50;2.00;;;;;8.89;100.00;101539.03;4819331;29;45235;-93
2023/01/02 17:09:46;;;;;;;;;3.00;1.75;;;;;9.29;100.00;101609.44;4831827;29;45512;-93
2023/01/02 17:12:18;;;;;;;;;3.25;3.00;;;;;9.28;100.00;101621.75;4866660;28;45684;-91
2023/01/02 17:14:57;;;;;;;;;4.25;3.25;;;;;7.96;100.00;101404.34;4944265;28;46382;-91
2023/01/02 17:17:26;;;;;;;;;5.25;3.50;;;;;7.94;100.00;101394.66;4956487;28;45434;-91
2023/01/02 17:19:52;;;;;;;;;2.75;2.75;;;;;8.78;100.00;101559.22;4939664;28;45341;-90
2023/01/02 17:22:21;;;;;;;;;3.50;3.50;;;;;9.20;100.00;101639.31;4963019;28;45414;-91
2023/01/02 17:24:49;;;;;;;;;2.75;2.75;;;;;7.22;100.00;101297.88;4958929;28;46283;-90
2023/01/02 17:27:15;;;;;;;;;3.25;3.25;;;;;8.53;100.00;101516.94;4958303;28;45284;-92
2023/01/02 17:29:40;;;;;;;;;3.75;3.75;;;;;7.94;100.00;101429.78;4954088;28;45415;-91
2023/01/02 17:36:10;;;;;;;;;3.00;3.00;;;;;9.07;100.00;101641.03;4962952;28;45436;-91
2023/01/02 17:38:38;;;;;;;;;3.00;3.00;;;;;7.08;100.00;101317.06;4978224;28;45289;-94
2023/01/02 17:41:07;;;;;;;;;3.00;3.00;;;;;7.53;100.00;101392.72;4953528;28;45187;-94
2023/01/02 17:43:39;;;;;;;;;2.25;2.25;;;;;7.42;100.00;101384.78;4964075;28;45369;-93
2023/01/02 17:46:06;;;;;;;;;5.00;3.25;;;;;9.00;100.00;101649.78;4955302;28;47063;-90
2023/01/02 17:48:34;;;;;;;;;4.00;4.00;;;;;7.99;100.00;101499.13;4966669;28;45584;-91
2023/01/02 17:51:16;;;;;;;;;;;;;;;;;;;;;
2023/01/02 17:56:37;;;;;;;;;4.50;3.75;;;;;7.65;100.00;101461.19;4951168;28;46917;-90
2023/01/02 17:59:09;;;;;;;;;9.25;8.50;;;;;7.59;100.00;101443.66;4939905;28;45366;-92
2023/01/02 18:01:49;;;;;;;;;;;;;;;;;;;;;
2023/01/02 18:04:17;;;;;;;;;5.25;5.25;;;;;7.79;100.00;101498.16;4963202;28;70465;-92
2023/01/02 18:06:45;;;;;;;;;6.25;5.75;;;;;6.97;100.00;101365.19;4969401;28;47306;-93
2023/01/02 18:09:11;;;;;;;;;6.00;5.75;;;;;7.49;100.00;101460.22;4951009;28;45430;-93
2023/01/02 18:11:37;;;;;;;;;4.50;4.50;;;;;7.10;100.00;101403.84;4971483;28;44702;-92
2023/01/02 18:14:28;;;;;;;;;3.00;3.00;;;;;7.55;100.00;101475.19;4972380;28;45351;-91
2023/01/02 18:17:00;;;;;;;;;5.00;5.00;;;;;7.86;100.00;101549.06;4979480;28;46928;-92
2023/01/02 18:19:33;;;;;;;;;10.00;7.25;;;;;7.96;100.00;101562.31;4964563;28;45264;-93
2023/01/02 18:22:07;;;;;;;;;5.00;4.00;;;;;8.52;100.00;101668.03;4963614;28;45473;-93
2023/01/02 18:24:35;;;;;;;;;10.00;8.00;;;;;8.71;100.00;101698.00;4958737;28;45569;-92
2023/01/02 18:27:12;;;;;;;;;9.00;8.50;;;;;8.69;100.00;101705.03;4972624;28;48169;-94
2023/01/02 18:29:40;;;;;;;;;5.50;4.75;;;;;7.04;100.00;101424.84;4982787;28;44612;-94
2023/01/02 18:35:37;;;;;;;;;7.75;6.00;;;;;8.60;100.00;101704.97;4982459;28;45242;-94
2023/01/02 18:38:14;;;;;;;;;7.50;5.25;;;;;6.63;100.00;101380.69;4971890;28;45253;-93
2023/01/02 18:40:42;;;;;;;;;7.00;7.00;;;;;7.75;100.00;101593.75;4967587;28;45319;-94
2023/01/02 18:43:25;;;;;;;;;5.25;5.25;;;;;7.16;100.00;101506.44;4989255;28;45411;-91
2023/01/02 18:45:59;;;;;;;;;8.00;6.25;;;;;6.76;100.00;101438.59;4953332;28;45452;-93
2023/01/02 18:48:25;;;;;;;;;7.25;7.25;;;;;6.81;100.00;101456.19;4966463;28;45405;-92
2023/01/02 18:51:03;;;;;;;;;7.00;4.25;;;;;8.50;100.00;101733.00;4969173;28;45770;-94
2023/01/02 18:58:11;;;;;;;;;;;;;;;;;;;;;
2023/01/02 19:00:41;;;;;;;;;10.00;7.75;;;;;7.26;100.00;101562.63;4930532;28;74692;-93
2023/01/02 19:03:22;;;;;;;;;6.25;6.25;;;;;7.14;100.00;101546.75;4911962;28;45382;-94
2023/01/02 19:05:50;;;;;;;;;7.25;7.25;;;;;7.73;100.00;101634.94;4919466;28;44695;-92
2023/01/02 19:08:33;;;;;;;;;9.50;7.50;;;;;7.67;100.00;101619.09;4919091;28;45247;-91
2023/01/02 19:13:00;;;;;;;;;9.75;5.00;;;;;8.24;100.00;101733.66;4928792;28;45838;-92
2023/01/02 19:13:45;;;;;;;;;7.00;6.75;;;;;8.33;100.00;101744.25;4932818;28;45270;-89
2023/01/02 19:16:17;;;;;;;;;8.25;8.25;;;;;7.89;100.00;101671.06;4914848;28;44795;-89
2023/01/02 19:18:48;;;;;;;;;6.50;5.00;;;;;7.13;100.00;101556.38;4918662;28;45399;-92
2023/01/02 19:21:21;;;;;;;;;7.50;5.00;;;;;6.63;100.00;101493.66;4912915;28;47213;-90
2023/01/02 19:23:48;;;;;;;;;5.00;5.00;;;;;7.00;100.00;101544.84;4925587;28;45990;-91
2023/01/02 19:26:54;;;;;;;;;7.00;5.00;;;;;7.33;100.00;101610.91;4923340;28;45455;-94
2023/01/02 19:29:30;;;;;;;;;4.00;4.00;;;;;7.47;100.00;101632.97;4906006;28;45689;-92
2023/01/02 19:32:02;;;;;;;;;6.25;5.75;;;;;6.94;100.00;101545.66;4902881;29;47258;-91
2023/01/02 19:34:51;;;;;;;;;7.50;6.75;;;;;6.65;100.00;101505.94;4889085;29;45320;-92
2023/01/02 19:37:40;;;;;;;;;8.50;6.25;;;;;8.25;100.00;101774.06;4839781;29;44797;-91
2023/01/02 19:40:10;;;;;;;;;8.75;7.50;;;;;7.76;100.00;101690.25;4839855;29;45608;-92
2023/01/02 19:43:10;;;;;;;;;8.25;6.00;;;;;8.22;100.00;101772.28;4838224;29;46673;-93
2023/01/02 19:45:37;;;;;;;;;8.25;7.50;;;;;6.91;100.00;101550.03;4859958;29;44749;-94
2023/01/02 19:48:05;;;;;;;;;8.00;4.75;;;;;6.88;100.00;101564.00;4852613;29;45363;-90
2023/01/02 19:50:30;;;;;;;;;7.50;7.50;;;;;7.26;100.00;101624.00;4863942;29;45395;-94
2023/01/02 19:52:56;;;;;;;;;9.75;9.00;;;;;6.57;100.00;101529.50;4867318;29;45310;-90
2023/01/02 19:55:24;;;;;;;;;7.50;7.50;;;;;7.32;100.00;101659.09;4870318;29;45491;-92
2023/01/02 19:57:53;;;;;;;;;5.25;5.25;;;;;7.72;100.00;101714.78;4853831;29;45313;-94
2023/01/02 20:00:21;;;;;;;;;6.50;6.50;;;;;6.97;100.00;101586.88;4876745;29;45358;-95
2023/01/02 20:02:50;;;;;;;;;9.75;9.75;;;;;7.75;100.00;101715.69;4883091;29;45042;-92
2023/01/02 20:05:19;;;;;;;;;10.75;10.75;;;;;7.22;100.00;101630.06;4863018;29;45308;-94
2023/01/02 20:07:44;;;;;;;;;11.50;11.50;;;;;8.09;100.00;101800.28;4872809;29;45557;-92
2023/01/02 20:10:11;;;;;;;;;10.50;10.50;;;;;7.55;100.00;101698.81;4876581;29;45398;-93
2023/01/02 20:12:40;;;;;;;;;17.50;14.25;;;;;7.64;100.00;101697.16;4847720;29;46631;-92
2023/01/02 20:15:10;;;;;;;;;11.00;11.00;;;;;6.54;100.00;101518.97;4927121;28;44775;-92
2023/01/02 20:17:37;;;;;;;;;9.00;8.75;;;;;7.89;100.00;101763.19;4920086;28;45382;-92
2023/01/02 20:20:05;;;;;;;;;16.00;14.50;;;;;6.13;100.00;101448.44;4917783;28;45527;-91
2023/01/02 20:22:31;;;;;;;;;14.50;12.00;;;;;6.23;100.00;101487.06;4900824;28;47218;-92
2023/01/02 20:24:59;;;;;;;;;12.75;11.75;;;;;7.93;100.00;101757.09;4919192;28;45469;-90
2023/01/02 20:27:28;;;;;;;;;16.00;13.75;;;;;7.49;100.00;101686.47;4912335;28;45507;-93
2023/01/02 20:29:56;;;;;;;;;13.25;11.50;;;;;6.97;100.00;101617.53;4921214;28;45581;-90
2023/01/02 20:32:25;;;;;;;;;12.00;12.00;;;;;6.88;100.00;101595.53;4915560;28;47361;-91
2023/01/02 20:34:51;;;;;;;;;12.00;11.00;;;;;7.56;100.00;101698.84;4929614;28;45360;-89
2023/01/02 20:37:20;;;;;;;;;13.25;11.50;;;;;7.14;100.00;101626.50;4925657;28;45535;-91
2023/01/02 20:39:52;;;;;;;;;8.25;5.00;;;;;6.78;100.00;101561.25;4926428;28;45253;-92
2023/01/02 20:42:19;;;;;;;;;14.25;13.75;;;;;6.34;100.00;101502.06;4923542;28;46929;-91
2023/01/02 20:44:51;;;;;;;;;11.75;11.50;;;;;7.45;100.00;101684.69;4909666;28;45391;-92
2023/01/02 20:47:18;;;;;;;;;11.50;11.25;;;;;7.94;100.00;101764.13;4934559;28;45731;-91
2023/01/02 20:49:43;;;;;;;;;14.25;11.75;;;;;6.32;100.00;101493.31;4951205;28;45474;-93
2023/01/02 20:52:09;;;;;;;;;11.75;11.75;;;;;7.46;100.00;101712.75;4931054;28;47254;-92
2023/01/02 20:54:37;;;;;;;;;12.00;10.50;;;;;6.26;100.00;101496.72;4926509;28;45161;-92
2023/01/02 20:58:40;;;;;;;;;12.00;10.00;;;;;7.90;100.00;101786.03;4946945;28;45290;-94
2023/01/02 21:00:34;;;;;;;;;14.75;10.75;;;;;7.19;100.00;101693.16;4882114;29;45382;-92
2023/01/02 21:03:02;;;;;;;;;11.75;11.75;;;;;7.87;100.00;101788.63;4852478;29;47185;-94
2023/01/02 21:05:38;;;;;;;;;13.00;12.00;;;;;6.49;100.00;101553.91;4876226;29;45359;-94
2023/01/02 21:08:12;;;;;;;;;11.25;11.25;;;;;6.71;100.00;101621.63;4864648;29;45280;-93
2023/01/02 21:14:07;;;;;;;;;8.00;8.00;;;;;6.17;100.00;101520.25;4874367;29;45840;-94
2023/01/02 21:16:36;;;;;;;;;8.50;8.50;;;;;7.83;100.00;101808.78;4858156;29;45393;-93
2023/01/02 21:19:15;;;;;;;;;9.50;9.00;;;;;5.91;100.00;101484.00;4876313;29;45363;-93
2023/01/02 21:27:15;;;;;;;;;8.25;6.25;;;;;7.28;100.00;101718.69;5105457;23;46538;-92
2023/01/02 21:29:40;;;;;;;;;8.50;5.75;;;;;5.85;100.00;101473.41;4944783;28;45264;-93
2023/01/02 21:32:12;;;;;;;;;7.50;7.50;;;;;6.64;100.00;101617.16;4956645;28;45676;-92
2023/01/02 21:34:39;;;;;;;;;8.75;7.00;;;;;7.05;100.00;101674.59;4948921;28;48173;-92
2023/01/02 21:37:08;;;;;;;;;7.25;5.75;;;;;7.58;100.00;101764.63;4954593;28;45488;-95
2023/01/02 21:39:47;;;;;;;;;9.50;7.75;;;;;7.40;100.00;101736.38;4961425;28;44930;-94
2023/01/02 21:45:39;;;;;;;;;5.75;5.75;;;;;5.88;100.00;101494.44;4973548;28;44837;-94
2023/01/02 21:51:31;;;;;;;;;4.00;3.00;;;;;7.39;100.00;101734.59;4975713;28;45374;-94
2023/01/02 21:54:06;;;;;;;;;10.25;9.50;;;;;6.63;100.00;101607.50;4959677;28;45199;-94
2023/01/02 21:56:39;;;;;;;;;5.75;5.75;;;;;6.63;100.00;101601.38;4958183;28;47172;-94
2023/01/02 21:59:19;;;;;;;;;5.50;5.00;;;;;7.84;100.00;101828.09;4972755;28;45461;-93
2023/01/02 22:02:05;;;;;;;;;7.25;5.50;;;;;5.70;100.00;101471.47;4946411;28;45343;-95
2023/01/02 22:04:34;;;;;;;;;6.25;5.00;;;;;6.42;100.00;101570.44;4949487;28;44972;-95
2023/01/02 22:07:26;;;;;;;;;7.00;7.00;;;;;6.19;100.00;101537.75;4957495;28;47255;-95
2023/01/02 22:10:01;;;;;;;;;10.00;8.00;;;;;5.88;100.00;101503.19;4973166;28;45450;-93
2023/01/02 22:12:30;;;;;;;;;7.50;7.25;;;;;6.60;100.00;101606.59;4956150;28;45410;-95
2023/01/02 22:14:55;;;;;;;;;9.25;9.25;;;;;7.06;100.00;101696.50;4946893;28;45293;-92
2023/01/02 22:17:41;;;;;;;;;10.00;10.00;;;;;7.81;100.00;101828.06;4957659;28;47540;-92
2023/01/02 22:20:23;;;;;;;;;12.75;12.75;;;;;6.90;100.00;101679.66;4968785;28;45297;-94
2023/01/02 22:26:05;;;;;;;;;18.50;15.75;;;;;7.61;100.00;101820.81;4965594;28;45419;-92
2023/01/02 22:31:42;;;;;;;;;23.75;21.00;;;;;7.64;100.00;101838.38;4854684;29;45495;-93
2023/01/02 22:34:20;;;;;;;;;20.75;20.50;;;;;6.57;100.00;101673.09;4855129;29;45267;-95
2023/01/02 22:36:45;;;;;;;;;24.50;22.75;;;;;5.52;100.00;101493.03;4854864;29;45531;-93
2023/01/02 22:39:13;;;;;;;;;27.00;24.50;;;;;7.52;100.00;101836.47;4854387;29;46625;-94
2023/01/02 22:44:47;;;;;;;;;17.50;17.50;;;;;6.53;100.00;101695.81;4852586;29;45497;-93
2023/01/02 22:47:20;;;;;;;;;23.25;20.00;;;;;6.44;100.00;101698.31;4858055;29;45633;-92
2023/01/02 22:49:53;;;;;;;;;23.50;18.00;;;;;7.36;100.00;101860.81;4840238;29;47435;-96
2023/01/02 22:52:28;;;;;;;;;23.50;22.50;;;;;7.24;100.00;101837.84;4843014;29;45490;-95
2023/01/02 22:58:18;;;;;;;;;27.75;22.00;;;;;6.50;100.00;101719.41;4807671;29;44762;-95
2023/01/02 23:01:07;;;;;;;;;25.75;24.75;;;;;5.19;100.00;101507.38;4850678;29;45568;-92
2023/01/02 23:03:40;;;;;;;;;23.00;22.00;;;;;4.99;100.00;101472.97;4849270;29;45387;-92
2023/01/02 23:06:07;;;;;;;;;25.25;22.75;;;;;7.13;100.00;101871.00;4856438;29;45508;-91
2023/01/02 23:08:35;;;;;;;;;24.50;23.75;;;;;5.92;100.00;101650.19;4879798;29;45423;-91
2023/01/02 23:11:05;;;;;;;;;22.75;22.00;;;;;5.87;100.00;101656.25;4852831;29;47022;-92
2023/01/02 23:13:36;;;;;;;;;30.75;26.75;;;;;6.36;100.00;101770.81;4869465;29;45543;-92
2023/01/02 23:21:36;;;;;;;;;33.00;28.25;;;;;6.25;100.00;101743.53;4889352;29;45712;-92
2023/01/02 23:24:08;;;;;;;;;28.75;26.00;;;;;5.67;100.00;101669.03;4874443;29;45452;-91
2023/01/02 23:26:38;;;;;;;;;18.75;17.75;;;;;4.80;100.00;101509.31;4872919;29;45485;-90
2023/01/02 23:29:13;;;;;;;;;29.75;26.00;;;;;5.19;100.00;101574.66;4928923;28;45338;-91
2023/01/02 23:31:43;;;;;;;;;28.75;28.75;;;;;6.56;100.00;101816.69;4949019;28;47252;-91
2023/01/02 23:34:12;;;;;;;;;28.25;23.00;;;;;6.14;100.00;101752.09;4951254;28;45382;-91
2023/01/02 23:36:41;;;;;;;;;31.50;28.00;;;;;6.61;100.00;101815.91;4951206;28;45286;-93
2023/01/02 23:39:16;;;;;;;;;25.50;24.00;;;;;6.32;100.00;101769.03;4937046;28;44880;-92
2023/01/02 23:41:43;;;;;;;;;27.00;24.50;;;;;5.55;100.00;101657.44;4928812;28;46935;-92
2023/01/02 23:44:09;;;;;;;;;28.00;23.50;;;;;6.21;100.00;101771.47;4929608;28;45515;-91
2023/01/02 23:46:35;;;;;;;;;32.00;25.25;;;;;4.19;100.00;101434.81;4933604;28;45415;-92
2023/01/02 23:49:01;;;;;;;;;28.75;27.75;;;;;5.55;100.00;101662.69;4931404;28;45341;-91
2023/01/02 23:51:26;;;;;;;;;25.50;23.75;;;;;6.18;100.00;101777.56;4924238;28;46955;-91
2023/01/02 23:53:58;;;;;;;;;24.50;24.50;;;;;6.60;100.00;101854.41;4925403;28;45443;-92
2023/01/02 23:56:29;;;;;;;;;27.75;23.00;;;;;5.26;100.00;101639.44;4925564;28;45524;-91